createdAt,value
2022-09-06T00:00:18.792Z,15.60
2022-09-06T00:02:47.193Z,15.60
2022-09-06T00:05:14.734Z,15.60
2022-09-06T00:07:42.045Z,15.50
2022-09-06T00:10:10.014Z,15.50
2022-09-06T00:12:37.981Z,15.50
2022-09-06T00:15:06.488Z,15.50
2022-09-06T00:17:34.324Z,15.50
2022-09-06T00:20:01.953Z,15.40
2022-09-06T00:22:28.805Z,15.40
2022-09-06T00:24:56.033Z,15.40
2022-09-06T00:27:23.102Z,15.30
2022-09-06T00:29:49.850Z,15.40
2022-09-06T00:32:17.183Z,15.30
2022-09-06T00:34:43.924Z,15.30
2022-09-06T00:37:10.691Z,15.30
2022-09-06T00:39:37.529Z,15.20
2022-09-06T00:42:10.103Z,15.30
2022-09-06T00:44:38.411Z,15.20
2022-09-06T00:47:07.571Z,15.20
2022-09-06T00:49:45.187Z,15.20
2022-09-06T00:52:16.107Z,15.20
2022-09-06T00:54:43.736Z,15.20
2022-09-06T00:57:12.130Z,15.20
2022-09-06T00:59:41.563Z,15.20
2022-09-06T01:02:09.497Z,15.10
2022-09-06T01:04:41.749Z,15.20
2022-09-06T01:07:42.040Z,15.10
2022-09-06T01:10:41.604Z,15.10
2022-09-06T01:13:31.065Z,15.10
2022-09-06T01:16:26.758Z,15.00
2022-09-06T01:19:55.178Z,15.00
2022-09-06T01:23:04.664Z,15.00
2022-09-06T01:26:09.037Z,15.00
2022-09-06T01:28:46.336Z,15.00
2022-09-06T01:31:44.554Z,14.90
2022-09-06T01:34:27.289Z,15.00
2022-09-06T01:37:10.758Z,14.90
2022-09-06T01:39:40.982Z,14.80
2022-09-06T01:42:22.322Z,14.80
2022-09-06T01:44:58.510Z,14.80
2022-09-06T01:47:27.957Z,14.80
2022-09-06T01:50:36.300Z,14.80
2022-09-06T01:53:17.486Z,14.80
2022-09-06T01:56:08.755Z,14.70
2022-09-06T01:59:32.834Z,14.70
2022-09-06T02:02:11.178Z,14.70
2022-09-06T02:05:13.409Z,14.70
2022-09-06T02:07:43.903Z,14.70
2022-09-06T02:10:59.267Z,14.60
2022-09-06T02:13:33.931Z,14.60
2022-09-06T02:16:08.040Z,14.60
2022-09-06T02:19:15.250Z,14.60
2022-09-06T02:21:46.257Z,14.60
2022-09-06T02:24:22.771Z,14.50
2022-09-06T02:26:50.138Z,14.50
2022-09-06T02:29:18.507Z,14.50
2022-09-06T02:31:56.123Z,14.50
2022-09-06T02:34:23.011Z,14.40
2022-09-06T02:36:50.311Z,14.40
2022-09-06T02:39:17.084Z,14.40
2022-09-06T02:41:46.347Z,14.40
2022-09-06T02:44:13.169Z,14.30
2022-09-06T02:46:40.426Z,14.30
2022-09-06T02:49:07.195Z,14.30
2022-09-06T02:51:39.196Z,14.20
2022-09-06T02:54:07.042Z,14.20
2022-09-06T02:56:36.430Z,14.30
2022-09-06T02:59:06.911Z,14.20
2022-09-06T03:01:34.192Z,14.20
2022-09-06T03:04:01.187Z,14.20
2022-09-06T03:06:28.048Z,14.20
2022-09-06T03:08:54.797Z,14.10
2022-09-06T03:11:21.540Z,14.10
2022-09-06T03:13:50.987Z,14.10
2022-09-06T03:16:18.354Z,14.10
2022-09-06T03:18:46.812Z,14.10
2022-09-06T03:21:14.484Z,14.10
2022-09-06T03:23:41.385Z,14.00
2022-09-06T03:26:08.717Z,14.00
2022-09-06T03:28:35.531Z,14.00
2022-09-06T03:31:02.346Z,14.00
2022-09-06T03:33:29.199Z,13.90
2022-09-06T03:36:01.278Z,13.90
2022-09-06T03:38:29.620Z,13.90
2022-09-06T03:40:57.171Z,13.90
2022-09-06T03:43:26.254Z,13.90
2022-09-06T03:45:57.011Z,13.90
2022-09-06T03:48:26.802Z,13.90
2022-09-06T03:50:57.202Z,13.90
2022-09-06T03:53:25.876Z,13.90
2022-09-06T03:55:55.589Z,13.90
2022-09-06T03:58:25.284Z,13.90
2022-09-06T04:01:06.404Z,13.90
2022-09-06T04:03:34.894Z,13.80
2022-09-06T04:06:02.524Z,13.80
2022-09-06T04:08:29.905Z,13.80
2022-09-06T04:10:58.319Z,13.80
2022-09-06T04:13:27.012Z,13.80
2022-09-06T04:15:54.273Z,13.80
2022-09-06T04:18:21.697Z,13.80
2022-09-06T04:20:51.677Z,13.80
2022-09-06T04:23:20.098Z,13.80
2022-09-06T04:25:52.534Z,13.80
2022-09-06T04:28:20.735Z,13.80
2022-09-06T04:31:03.983Z,13.80
2022-09-06T04:33:35.065Z,13.80
2022-09-06T04:36:05.262Z,13.80
2022-09-06T04:38:40.697Z,13.80
2022-09-06T04:41:08.482Z,13.80
2022-09-06T04:43:35.405Z,13.80
2022-09-06T04:46:11.844Z,13.80
2022-09-06T04:48:38.623Z,13.80
2022-09-06T04:51:05.606Z,13.80
2022-09-06T04:53:32.537Z,13.80
2022-09-06T04:55:59.548Z,13.90
2022-09-06T04:58:26.608Z,13.90
2022-09-06T05:00:53.609Z,13.90
2022-09-06T05:03:20.553Z,14.00
2022-09-06T05:05:47.314Z,14.00
2022-09-06T05:08:14.767Z,14.00
2022-09-06T05:10:41.511Z,14.00
2022-09-06T05:13:08.320Z,14.10
2022-09-06T05:15:35.083Z,14.10
2022-09-06T05:18:04.629Z,14.10
2022-09-06T05:20:32.355Z,14.10
2022-09-06T05:23:00.016Z,14.20
2022-09-06T05:25:26.843Z,14.20
2022-09-06T05:27:53.614Z,14.20
2022-09-06T05:30:20.633Z,14.20
2022-09-06T05:32:47.418Z,14.30
2022-09-06T05:35:14.494Z,14.30
2022-09-06T05:37:41.305Z,14.30
2022-09-06T05:40:09.259Z,14.40
2022-09-06T05:42:36.110Z,14.50
2022-09-06T05:45:03.030Z,14.50
2022-09-06T05:47:33.072Z,14.60
2022-09-06T05:49:59.914Z,14.70
2022-09-06T05:52:26.682Z,14.70
2022-09-06T05:54:53.423Z,14.80
2022-09-06T05:57:20.232Z,14.90
2022-09-06T05:59:46.986Z,15.00
2022-09-06T06:02:13.773Z,15.10
2022-09-06T06:04:40.568Z,15.10
2022-09-06T06:07:07.351Z,15.10
2022-09-06T06:09:34.144Z,15.20
2022-09-06T06:12:00.897Z,15.30
2022-09-06T06:14:27.748Z,15.40
2022-09-06T06:16:54.576Z,15.40
2022-09-06T06:19:21.429Z,15.50
2022-09-06T06:21:48.317Z,15.60
2022-09-06T06:24:15.146Z,15.70
2022-09-06T06:26:41.921Z,15.80
2022-09-06T06:29:09.588Z,16.00
2022-09-06T06:31:39.024Z,16.10
2022-09-06T06:34:07.047Z,16.30
2022-09-06T06:36:36.563Z,16.40
2022-09-06T06:39:08.358Z,16.70
2022-09-06T06:41:35.255Z,16.90
2022-09-06T06:44:05.271Z,17.10
2022-09-06T06:46:38.260Z,17.30
2022-09-06T06:49:05.896Z,17.50
2022-09-06T06:51:37.122Z,17.70
2022-09-06T06:54:05.582Z,18.00
2022-09-06T06:56:38.695Z,18.20
2022-09-06T06:59:07.725Z,18.30
2022-09-06T07:01:36.451Z,18.40
2022-09-06T07:04:04.647Z,18.40
2022-09-06T07:12:18.978Z,18.70
2022-09-06T07:14:45.738Z,18.70
2022-09-06T07:17:12.503Z,18.80
2022-09-06T07:22:26.027Z,19.00
2022-09-06T07:24:52.791Z,19.20
2022-09-06T07:30:07.249Z,19.70
2022-09-06T07:32:37.031Z,20.00
2022-09-06T07:35:04.335Z,20.10
2022-09-06T07:37:31.226Z,20.10
2022-09-06T07:40:00.868Z,20.10
2022-09-06T07:42:27.701Z,20.10
2022-09-06T07:44:57.602Z,20.10
2022-09-06T07:55:38.115Z,20.50
2022-09-06T07:58:04.900Z,20.70
2022-09-06T08:00:31.963Z,20.80
2022-09-06T08:02:59.355Z,21.10
2022-09-06T08:11:03.537Z,21.30
2022-09-06T08:13:30.295Z,21.20
2022-09-06T08:16:06.832Z,21.20
2022-09-06T08:18:35.667Z,21.20
2022-09-06T08:21:12.473Z,21.20
2022-09-06T08:23:52.345Z,21.20
2022-09-06T08:26:22.397Z,21.30
2022-09-06T08:28:54.897Z,21.40
2022-09-06T08:31:21.968Z,21.50
2022-09-06T08:33:48.811Z,21.60
2022-09-06T08:36:15.845Z,21.60
2022-09-06T08:38:42.621Z,21.60
2022-09-06T08:41:25.473Z,21.80
2022-09-06T08:46:59.084Z,21.90
2022-09-06T08:49:30.491Z,22.10
2022-09-06T08:52:23.471Z,22.20
2022-09-06T08:55:57.626Z,22.40
2022-09-06T08:59:06.452Z,22.70
2022-09-06T09:02:10.931Z,22.80
2022-09-06T09:04:49.243Z,22.90
2022-09-06T09:07:40.140Z,22.90
2022-09-06T09:10:18.919Z,22.90
2022-09-06T09:12:50.483Z,22.90
2022-09-06T09:15:20.167Z,23.00
2022-09-06T09:17:51.457Z,23.10
2022-09-06T09:20:18.706Z,23.00
2022-09-06T09:22:46.518Z,23.00
2022-09-06T09:25:23.483Z,23.00
2022-09-06T09:27:57.648Z,23.10
2022-09-06T09:30:48.974Z,23.30
2022-09-06T09:33:38.500Z,23.60
2022-09-06T09:36:12.285Z,23.80
2022-09-06T09:38:49.157Z,24.00
2022-09-06T09:41:33.234Z,24.30
2022-09-06T09:44:09.098Z,24.40
2022-09-06T09:46:39.645Z,24.50
2022-09-06T09:49:13.580Z,24.70
2022-09-06T09:51:47.780Z,24.90
2022-09-06T09:54:32.099Z,25.10
2022-09-06T09:56:59.100Z,25.30
2022-09-06T09:59:34.233Z,25.30
2022-09-06T10:02:15.499Z,25.50
2022-09-06T10:04:50.349Z,25.80
2022-09-06T10:07:24.909Z,25.80
2022-09-06T10:10:23.560Z,26.00
2022-09-06T10:13:23.251Z,26.30
2022-09-06T10:15:53.401Z,26.40
2022-09-06T10:18:36.202Z,26.60
2022-09-06T10:21:11.547Z,26.70
2022-09-06T10:24:28.684Z,26.90
2022-09-06T10:27:02.683Z,27.00
2022-09-06T10:29:56.259Z,27.00
2022-09-06T10:32:45.898Z,27.10
2022-09-06T10:35:40.680Z,27.10
2022-09-06T10:38:36.292Z,27.10
2022-09-06T10:41:42.035Z,27.30
2022-09-06T10:44:30.350Z,27.30
2022-09-06T10:47:12.431Z,27.30
2022-09-06T10:49:50.696Z,27.50
2022-09-06T10:52:34.194Z,27.70
2022-09-06T10:55:05.633Z,27.60
2022-09-06T11:00:43.518Z,27.80
2022-09-06T11:06:17.315Z,28.20
2022-09-06T11:08:58.254Z,28.30
2022-09-06T11:11:44.955Z,28.20
2022-09-06T11:14:14.465Z,28.10
2022-09-06T11:17:10.119Z,28.00
2022-09-06T11:20:20.154Z,28.40
2022-09-06T11:23:25.300Z,28.60
2022-09-06T11:26:34.354Z,28.80
2022-09-06T11:29:20.697Z,28.90
2022-09-06T11:32:16.581Z,28.70
2022-09-06T11:34:54.872Z,28.20
2022-09-06T11:37:42.978Z,27.80
2022-09-06T11:40:28.733Z,27.60
2022-09-06T11:42:55.829Z,27.60
2022-09-06T11:45:47.475Z,27.60
2022-09-06T11:48:26.496Z,27.90
2022-09-06T11:50:58.822Z,28.30
2022-09-06T11:53:31.878Z,28.60
2022-09-06T11:56:01.812Z,28.80
2022-09-06T11:58:57.244Z,29.10
2022-09-06T12:01:23.899Z,29.20
2022-09-06T12:04:09.861Z,29.20
2022-09-06T12:06:40.568Z,29.20
2022-09-06T12:09:37.694Z,29.20
2022-09-06T12:12:05.293Z,29.40
2022-09-06T12:14:40.226Z,29.60
2022-09-06T12:17:09.727Z,29.90
2022-09-06T12:20:06.549Z,30.00
2022-09-06T12:22:33.284Z,30.00
2022-09-06T12:25:21.172Z,29.70
2022-09-06T12:27:55.985Z,29.50
2022-09-06T12:30:39.581Z,29.40
2022-09-06T12:33:14.270Z,29.40
2022-09-06T12:35:57.201Z,29.40
2022-09-06T12:38:25.917Z,29.20
2022-09-06T12:40:58.181Z,29.10
2022-09-06T12:43:26.232Z,29.10
2022-09-06T12:45:53.161Z,29.30
2022-09-06T12:48:33.307Z,29.30
2022-09-06T12:51:16.185Z,29.60
2022-09-06T12:53:55.333Z,29.90
2022-09-06T12:56:24.882Z,30.30
2022-09-06T12:58:51.973Z,30.70
2022-09-06T13:01:34.654Z,31.00
2022-09-06T13:04:18.569Z,31.30
2022-09-06T13:06:48.378Z,31.30
2022-09-06T13:09:20.534Z,31.10
2022-09-06T13:11:52.039Z,30.60
2022-09-06T13:14:29.850Z,30.50
2022-09-06T13:16:57.110Z,30.60
2022-09-06T13:19:36.954Z,30.70
2022-09-06T13:22:07.865Z,30.90
2022-09-06T13:24:34.522Z,30.70
2022-09-06T13:27:21.482Z,30.40
2022-09-06T13:30:03.501Z,30.20
2022-09-06T13:32:30.600Z,30.40
2022-09-06T13:37:29.548Z,30.40
2022-09-06T13:39:57.441Z,30.10
2022-09-06T13:42:38.474Z,29.50
2022-09-06T13:45:40.978Z,29.20
2022-09-06T13:48:26.247Z,29.00
2022-09-06T13:50:54.458Z,29.30
2022-09-06T13:53:21.197Z,29.70
2022-09-06T13:55:47.940Z,30.00
2022-09-06T13:58:14.773Z,30.30
2022-09-06T14:00:46.797Z,30.50
2022-09-06T14:03:26.717Z,30.80
2022-09-06T14:05:53.743Z,31.30
2022-09-06T14:08:21.141Z,31.70
2022-09-06T14:10:48.326Z,32.20
2022-09-06T14:13:17.347Z,32.90
2022-09-06T14:15:46.687Z,34.50
2022-09-06T14:18:14.649Z,36.70
2022-09-06T14:20:42.691Z,38.00
2022-09-06T14:23:09.687Z,39.40
2022-09-06T14:25:37.974Z,40.00
2022-09-06T14:28:05.411Z,40.90
2022-09-06T14:30:32.502Z,41.60
2022-09-06T14:32:59.676Z,41.90
2022-09-06T14:35:27.571Z,41.20
2022-09-06T14:37:54.343Z,39.90
2022-09-06T14:40:21.906Z,38.40
2022-09-06T14:42:50.566Z,36.70
2022-09-06T14:45:18.247Z,35.00
2022-09-06T14:47:45.313Z,33.60
2022-09-06T14:50:12.514Z,32.60
2022-09-06T14:52:39.281Z,31.90
2022-09-06T14:55:06.709Z,31.60
2022-09-06T14:57:33.510Z,31.40
2022-09-06T15:00:01.622Z,31.20
2022-09-06T15:02:28.939Z,31.10
2022-09-06T15:04:55.834Z,31.00
2022-09-06T15:07:22.772Z,30.90
2022-09-06T15:09:50.967Z,30.80
2022-09-06T15:12:18.052Z,30.70
2022-09-06T15:14:45.143Z,31.00
2022-09-06T15:17:13.041Z,31.50
2022-09-06T15:19:39.873Z,32.20
2022-09-06T15:22:07.123Z,33.00
2022-09-06T15:24:34.753Z,33.70
2022-09-06T15:27:01.511Z,34.40
2022-09-06T15:29:28.392Z,34.20
2022-09-06T15:31:55.878Z,33.70
2022-09-06T15:34:25.371Z,33.10
2022-09-06T15:36:53.347Z,32.60
2022-09-06T15:39:20.586Z,32.10
2022-09-06T15:41:49.906Z,31.80
2022-09-06T15:44:20.375Z,31.50
2022-09-06T15:46:54.044Z,31.20
2022-09-06T15:49:28.403Z,31.00
2022-09-06T15:51:58.054Z,30.80
2022-09-06T15:54:45.263Z,30.70
2022-09-06T15:57:13.565Z,30.50
2022-09-06T15:59:40.977Z,30.20
2022-09-06T16:02:09.440Z,30.00
2022-09-06T16:04:36.343Z,29.70
2022-09-06T16:07:04.010Z,29.60
2022-09-06T16:09:31.677Z,29.50
2022-09-06T16:11:58.463Z,29.40
2022-09-06T16:14:25.559Z,29.20
2022-09-06T16:16:54.724Z,29.10
2022-09-06T16:19:21.858Z,29.00
2022-09-06T16:21:49.095Z,28.80
2022-09-06T16:24:18.517Z,28.70
2022-09-06T16:26:46.740Z,28.60
2022-09-06T16:29:17.931Z,28.50
2022-09-06T16:31:45.845Z,28.40
2022-09-06T16:34:13.879Z,28.30
2022-09-06T16:36:41.589Z,28.10
2022-09-06T16:39:10.014Z,28.10
2022-09-06T16:41:42.397Z,28.00
2022-09-06T16:44:19.010Z,27.80
2022-09-06T16:46:49.504Z,27.70
2022-09-06T16:49:18.999Z,27.60
2022-09-06T16:51:47.342Z,27.40
2022-09-06T16:54:15.457Z,27.30
2022-09-06T16:56:42.789Z,27.20
2022-09-06T16:59:11.194Z,27.10
2022-09-06T17:01:43.425Z,26.90
2022-09-06T17:04:10.697Z,26.70
2022-09-06T17:06:55.690Z,26.50
2022-09-06T17:09:22.489Z,26.40
2022-09-06T17:11:50.193Z,26.20
2022-09-06T17:14:18.107Z,26.00
2022-09-06T17:17:03.280Z,25.80
2022-09-06T17:19:34.722Z,25.60
2022-09-06T17:22:01.479Z,25.50
2022-09-06T17:24:28.377Z,25.30
2022-09-06T17:26:55.237Z,25.10
2022-09-06T17:29:24.295Z,24.90
2022-09-06T17:31:51.077Z,24.70
2022-09-06T17:34:18.070Z,24.50
2022-09-06T17:36:45.034Z,24.30
2022-09-06T17:39:17.520Z,24.30
2022-09-06T17:41:47.790Z,24.10
2022-09-06T17:44:19.298Z,23.90
2022-09-06T17:47:09.013Z,23.70
2022-09-06T17:49:34.744Z,23.60
2022-09-06T17:52:01.669Z,23.50
2022-09-06T17:54:29.653Z,23.30
2022-09-06T17:56:56.427Z,23.30
2022-09-06T17:59:23.266Z,23.20
2022-09-06T18:01:50.037Z,23.10
2022-09-06T18:04:17.511Z,22.90
2022-09-06T18:06:46.306Z,22.80
2022-09-06T18:09:17.417Z,22.70
2022-09-06T18:11:48.549Z,22.60
2022-09-06T18:14:20.679Z,22.50
2022-09-06T18:16:49.029Z,22.40
2022-09-06T18:19:17.673Z,22.20
2022-09-06T18:21:45.196Z,22.00
2022-09-06T18:24:13.851Z,22.10
2022-09-06T18:26:42.423Z,21.90
2022-09-06T18:29:13.004Z,21.80
2022-09-06T18:31:41.121Z,21.70
2022-09-06T18:34:08.714Z,21.70
2022-09-06T18:36:37.025Z,21.60
2022-09-06T18:39:04.960Z,21.50
2022-09-06T18:41:51.907Z,21.40
2022-09-06T18:44:19.048Z,21.30
2022-09-06T18:46:45.959Z,21.20
2022-09-06T18:49:14.919Z,21.10
2022-09-06T18:51:43.249Z,21.00
2022-09-06T18:54:10.853Z,20.90
2022-09-06T18:56:37.978Z,20.80
2022-09-06T18:59:05.595Z,20.70
2022-09-06T19:01:34.684Z,20.60
2022-09-06T19:04:03.003Z,20.60
2022-09-06T19:06:32.352Z,20.60
2022-09-06T19:09:06.973Z,20.50
2022-09-06T19:11:34.832Z,20.50
2022-09-06T19:14:02.957Z,20.50
2022-09-06T19:16:31.340Z,20.40
2022-09-06T19:19:09.730Z,20.40
2022-09-06T19:21:41.460Z,20.30
2022-09-06T19:24:11.062Z,20.20
2022-09-06T19:26:41.379Z,20.10
2022-09-06T19:29:13.927Z,20.10
2022-09-06T19:31:41.188Z,20.00
2022-09-06T19:34:08.009Z,20.00
2022-09-06T19:36:36.013Z,19.90
2022-09-06T19:39:06.785Z,19.90
2022-09-06T19:41:39.377Z,19.80
2022-09-06T19:44:08.500Z,19.70
2022-09-06T19:46:37.194Z,19.60
2022-09-06T19:49:08.121Z,19.60
2022-09-06T19:51:36.844Z,19.50
2022-09-06T19:54:04.672Z,19.40
2022-09-06T19:56:34.757Z,19.40
2022-09-06T19:59:05.741Z,19.30
2022-09-06T20:01:35.121Z,19.30
2022-09-06T20:04:06.818Z,19.20
2022-09-06T20:06:35.252Z,19.20
2022-09-06T20:09:04.991Z,19.20
2022-09-06T20:11:34.038Z,19.10
2022-09-06T20:14:01.707Z,19.00
2022-09-06T20:16:30.223Z,19.00
2022-09-06T20:18:59.262Z,18.90
2022-09-06T20:21:28.374Z,18.80
2022-09-06T20:23:57.585Z,18.80
2022-09-06T20:26:26.834Z,18.70
2022-09-06T20:29:01.564Z,18.70
2022-09-06T20:31:31.003Z,18.60
2022-09-06T20:34:04.318Z,18.70
2022-09-06T20:36:31.454Z,18.60
2022-09-06T20:38:58.276Z,18.60
2022-09-06T20:41:27.243Z,18.50
2022-09-06T20:43:59.307Z,18.50
2022-09-06T20:46:32.694Z,18.40
2022-09-06T20:49:03.360Z,18.40
2022-09-06T20:51:32.222Z,18.30
2022-09-06T20:54:01.143Z,18.30
2022-09-06T20:56:33.092Z,18.20
2022-09-06T20:59:04.234Z,18.10
2022-09-06T21:01:40.011Z,18.10
2022-09-06T21:04:09.515Z,18.10
2022-09-06T21:06:39.266Z,18.00
2022-09-06T21:09:10.810Z,18.00
2022-09-06T21:11:38.163Z,18.00
2022-09-06T21:14:06.409Z,17.90
2022-09-06T21:16:33.861Z,17.90
2022-09-06T21:19:04.199Z,17.80
2022-09-06T21:21:33.029Z,17.80
2022-09-06T21:24:05.823Z,17.70
2022-09-06T21:26:33.417Z,17.70
2022-09-06T21:29:00.430Z,17.70
2022-09-06T21:31:31.363Z,17.60
2022-09-06T21:34:03.184Z,17.50
2022-09-06T21:36:34.097Z,17.50
2022-09-06T21:39:05.435Z,17.10
2022-09-06T21:41:34.904Z,17.40
2022-09-06T21:44:04.011Z,17.40
2022-09-06T21:46:34.903Z,17.40
2022-09-06T21:49:05.458Z,17.40
2022-09-06T21:51:33.171Z,17.30
2022-09-06T21:54:04.810Z,17.20
2022-09-06T21:56:34.078Z,17.20
2022-09-06T21:59:01.247Z,17.20
2022-09-06T22:01:32.190Z,17.10
2022-09-06T22:04:00.087Z,17.10
2022-09-06T22:06:30.158Z,17.00
2022-09-06T22:09:00.300Z,17.00
2022-09-06T22:11:31.739Z,16.80
2022-09-06T22:14:01.861Z,16.80
2022-09-06T22:16:30.018Z,16.70
2022-09-06T22:18:56.902Z,16.70
2022-09-06T22:21:24.374Z,16.70
2022-09-06T22:23:54.432Z,16.70
2022-09-06T22:26:23.098Z,16.70
2022-09-06T22:28:58.936Z,16.70
2022-09-06T22:31:28.275Z,16.70
2022-09-06T22:33:55.773Z,16.60
2022-09-06T22:36:25.350Z,16.60
2022-09-06T22:38:57.066Z,16.50
2022-09-06T22:41:27.062Z,16.50
2022-09-06T22:43:54.602Z,16.50
2022-09-06T22:46:21.515Z,16.40
2022-09-06T22:48:49.142Z,16.40
2022-09-06T22:51:16.384Z,16.40
2022-09-06T22:53:43.263Z,16.40
2022-09-06T22:56:10.261Z,16.40
2022-09-06T22:58:37.175Z,16.30
2022-09-06T23:01:15.953Z,16.30
2022-09-06T23:03:43.712Z,16.20
2022-09-06T23:06:10.878Z,16.20
2022-09-06T23:08:39.877Z,16.20
2022-09-06T23:11:16.463Z,16.20
2022-09-06T23:13:44.285Z,16.10
2022-09-06T23:16:18.651Z,16.10
2022-09-06T23:18:46.093Z,16.10
2022-09-06T23:21:17.005Z,16.10
2022-09-06T23:23:44.465Z,16.00
2022-09-06T23:26:24.257Z,16.00
2022-09-06T23:28:56.369Z,16.00
2022-09-06T23:31:26.879Z,15.90
2022-09-06T23:33:59.327Z,15.90
2022-09-06T23:36:27.221Z,15.90
2022-09-06T23:38:55.766Z,15.90
2022-09-06T23:41:23.541Z,15.90
2022-09-06T23:43:50.655Z,15.90
2022-09-06T23:46:18.127Z,15.90
2022-09-06T23:48:45.030Z,15.90
2022-09-06T23:51:12.795Z,15.90
2022-09-06T23:53:40.379Z,15.80
2022-09-06T23:56:08.147Z,15.80
2022-09-06T23:58:35.962Z,15.80
